Time;durP1;ratioP1;P1;durP2;ratioP2;P2;SDS_P1;SDS_P2;PMS_P1;PMS_P2;Temp;Humidity;BMP_temperature;BMP_pressure;BME280_temperature;BME280_humidity;BME280_pressure;Samples;Min_cycle;Max_cycle;Signal;HPM_P1;HPM_P2
2022/05/28 00:01:21;;;;;;;2.00;1.70;;;22.00;99.90;;;;;;5039304;28;20426;-71
2022/05/28 00:03:48;;;;;;;3.23;2.00;;;22.00;99.90;;;;;;5039208;28;20422;-66
2022/05/28 00:06:22;;;;;;;3.30;2.20;;;22.00;99.90;;;;;;5039390;28;20488;-69
2022/05/28 00:08:49;;;;;;;2.20;2.00;;;21.90;99.90;;;;;;5038992;28;20788;-68
2022/05/28 00:11:18;;;;;;;2.60;1.97;;;21.90;99.90;;;;;;5038856;28;20481;-69
2022/05/28 00:13:44;;;;;;;3.47;1.70;;;21.80;99.90;;;;;;5038932;28;20454;-66
2022/05/28 00:16:11;;;;;;;3.27;2.03;;;21.70;99.90;;;;;;5038951;28;20454;-68
2022/05/28 00:18:39;;;;;;;2.47;2.27;;;21.50;99.90;;;;;;5038727;28;20775;-69
2022/05/28 00:21:09;;;;;;;7.50;2.97;;;21.40;99.90;;;;;;5038716;28;20434;-69
2022/05/28 00:23:36;;;;;;;2.70;2.50;;;21.30;99.90;;;;;;5038662;28;20420;-66
2022/05/28 00:26:03;;;;;;;1.93;1.70;;;21.20;99.90;;;;;;5038733;28;20454;-66
2022/05/28 00:28:29;;;;;;;2.30;2.07;;;21.10;99.90;;;;;;5038619;28;20766;-66
2022/05/28 00:30:55;;;;;;;3.60;2.03;;;21.00;99.90;;;;;;5038434;28;20850;-66
2022/05/28 00:33:22;;;;;;;2.07;1.97;;;20.90;99.90;;;;;;5038526;28;20402;-67
2022/05/28 00:35:49;;;;;;;2.57;2.10;;;20.90;99.90;;;;;;5038484;28;20468;-69
2022/05/28 00:38:15;;;;;;;1.90;1.80;;;20.80;99.90;;;;;;5038907;28;20770;-69
2022/05/28 00:40:49;;;;;;;2.33;2.13;;;20.70;99.90;;;;;;5038362;28;20472;-69
2022/05/28 00:43:16;;;;;;;3.10;2.70;;;20.70;99.90;;;;;;5038411;28;20417;-69
2022/05/28 00:45:44;;;;;;;4.10;2.10;;;20.60;99.90;;;;;;5038074;28;20454;-69
2022/05/28 00:48:11;;;;;;;5.67;2.40;;;20.60;99.90;;;;;;5038290;28;20418;-66
2022/05/28 00:50:38;;;;;;;1.90;1.70;;;20.60;99.90;;;;;;5037835;28;20496;-67
2022/05/28 00:53:05;;;;;;;2.13;1.93;;;20.60;99.90;;;;;;5038133;28;20446;-69
2022/05/28 00:55:33;;;;;;;2.03;1.93;;;20.60;99.90;;;;;;5038161;28;21097;-66
2022/05/28 00:58:01;;;;;;;2.30;2.10;;;20.60;99.90;;;;;;5038424;28;20409;-66
2022/05/28 01:00:27;;;;;;;1.67;1.57;;;20.50;99.90;;;;;;5038049;28;20547;-69
2022/05/28 01:03:12;;;;;;;1.80;1.70;;;20.50;99.90;;;;;;5038015;28;20445;-69
2022/05/28 01:06:02;;;;;;;2.50;2.30;;;20.50;99.90;;;;;;5037938;28;20493;-66
2022/05/28 01:08:40;;;;;;;2.37;2.17;;;20.50;99.90;;;;;;5055834;28;20495;-69
2022/05/28 01:11:31;;;;;;;1.73;1.63;;;20.50;99.90;;;;;;5037236;28;20488;-69
2022/05/28 01:14:09;;;;;;;1.77;1.60;;;20.50;99.90;;;;;;5037846;28;20958;-66
2022/05/28 01:16:40;;;;;;;2.10;1.90;;;20.50;99.90;;;;;;5037719;28;20433;-66
2022/05/28 01:19:23;;;;;;;1.93;1.70;;;20.50;99.90;;;;;;5055613;28;20426;-66
2022/05/28 01:21:59;;;;;;;1.57;1.43;;;20.40;99.90;;;;;;5056065;28;20977;-67
2022/05/28 01:24:31;;;;;;;1.73;1.63;;;20.40;99.90;;;;;;5038233;28;20780;-66
2022/05/28 01:27:03;;;;;;;1.57;1.47;;;20.40;99.90;;;;;;5037930;28;20473;-69
2022/05/28 01:29:51;;;;;;;1.57;1.43;;;20.40;99.90;;;;;;5037690;28;20524;-70
2022/05/28 01:32:19;;;;;;;1.30;1.20;;;20.40;99.90;;;;;;5037825;28;20440;-69
2022/05/28 01:34:45;;;;;;;1.50;1.40;;;20.40;99.90;;;;;;5037378;28;20851;-68
2022/05/28 01:37:13;;;;;;;1.20;1.10;;;20.30;99.90;;;;;;5055407;28;20405;-69
2022/05/28 01:39:42;;;;;;;1.27;1.17;;;20.30;99.90;;;;;;5037396;28;20433;-66
2022/05/28 01:42:09;;;;;;;1.80;1.60;;;20.20;99.90;;;;;;5037441;28;20766;-66
2022/05/28 01:44:39;;;;;;;3.27;1.57;;;20.20;99.90;;;;;;5055320;28;20430;-66
2022/05/28 01:47:05;;;;;;;3.73;1.50;;;20.20;99.90;;;;;;5037109;28;20440;-66
2022/05/28 01:49:33;;;;;;;1.37;1.27;;;20.10;99.90;;;;;;5036872;28;20436;-66
2022/05/28 01:52:01;;;;;;;1.60;1.07;;;20.10;99.90;;;;;;5037061;28;20230;-66
2022/05/28 01:54:36;;;;;;;2.07;1.50;;;20.00;99.90;;;;;;5036982;28;20440;-69
2022/05/28 01:57:02;;;;;;;1.70;1.60;;;20.00;99.90;;;;;;5037216;28;20432;-69
2022/05/28 01:59:31;;;;;;;2.90;1.50;;;19.90;99.90;;;;;;5037009;28;20440;-68
2022/05/28 02:01:59;;;;;;;2.57;1.73;;;19.90;99.90;;;;;;5054756;28;20930;-66
2022/05/28 02:04:25;;;;;;;2.77;1.57;;;19.70;99.90;;;;;;5036782;28;20441;-70
2022/05/28 02:06:51;;;;;;;1.23;1.13;;;19.70;99.90;;;;;;5037074;28;20530;-66
2022/05/28 02:09:22;;;;;;;1.40;1.30;;;19.60;99.90;;;;;;5036703;28;20445;-69
2022/05/28 02:12:06;;;;;;;1.13;1.03;;;19.50;99.90;;;;;;5036832;28;20488;-70
2022/05/28 02:14:38;;;;;;;1.33;1.17;;;19.40;99.90;;;;;;5036559;28;20440;-66
2022/05/28 02:17:22;;;;;;;1.17;1.10;;;19.20;99.90;;;;;;5036816;28;20475;-66
2022/05/28 02:19:48;;;;;;;1.23;1.13;;;19.10;99.90;;;;;;5036614;28;20427;-66
2022/05/28 02:22:30;;;;;;;1.23;1.13;;;19.00;99.90;;;;;;5036578;28;20415;-69
2022/05/28 02:25:04;;;;;;;8.47;1.60;;;18.90;99.90;;;;;;5036330;28;20196;-68
2022/05/28 02:27:31;;;;;;;1.40;1.30;;;18.90;99.90;;;;;;5036459;28;20414;-66
2022/05/28 02:30:00;;;;;;;2.50;1.10;;;18.80;99.90;;;;;;5036307;28;20455;-66
2022/05/28 02:32:26;;;;;;;2.13;1.40;;;18.80;99.90;;;;;;5036205;28;21050;-66
2022/05/28 02:34:52;;;;;;;1.10;1.00;;;18.70;99.90;;;;;;5036205;28;20467;-68
2022/05/28 02:37:23;;;;;;;1.57;1.47;;;18.70;99.90;;;;;;5036473;28;20419;-68
2022/05/28 02:39:49;;;;;;;1.10;1.00;;;18.60;99.90;;;;;;5036231;28;20444;-66
2022/05/28 02:42:15;;;;;;;4.53;1.30;;;18.60;99.90;;;;;;5036429;28;20421;-68
2022/05/28 02:44:41;;;;;;;1.20;1.10;;;18.50;99.90;;;;;;5036248;28;20593;-66
2022/05/28 02:47:07;;;;;;;1.37;1.13;;;18.40;99.90;;;;;;5036549;28;20182;-68
2022/05/28 02:49:33;;;;;;;1.07;0.97;;;18.40;99.90;;;;;;5036090;28;20470;-66
2022/05/28 02:52:06;;;;;;;1.10;1.00;;;18.30;99.90;;;;;;5036279;28;20486;-69
2022/05/28 02:54:34;;;;;;;1.00;1.00;;;18.20;99.90;;;;;;5019997;28;20466;-66
2022/05/28 02:57:02;;;;;;;1.20;1.10;;;18.10;99.90;;;;;;5036357;28;20481;-68
2022/05/28 02:59:28;;;;;;;1.20;1.10;;;18.00;99.90;;;;;;5036611;28;20474;-68
2022/05/28 03:01:54;;;;;;;2.00;1.60;;;18.00;99.90;;;;;;5036164;28;20840;-66
2022/05/28 03:04:21;;;;;;;1.50;1.40;;;17.90;99.90;;;;;;5035937;28;20517;-69
2022/05/28 03:06:47;;;;;;;4.33;1.60;;;17.90;99.90;;;;;;5036078;28;20430;-68
2022/05/28 03:09:15;;;;;;;2.50;1.40;;;17.90;99.90;;;;;;5035941;28;20439;-66
2022/05/28 03:11:41;;;;;;;1.40;0.93;;;17.90;99.90;;;;;;5035836;28;20502;-66
2022/05/28 03:14:07;;;;;;;1.43;1.20;;;17.80;99.90;;;;;;5035587;28;20474;-70
2022/05/28 03:16:33;;;;;;;2.27;1.50;;;17.80;99.90;;;;;;5035777;28;20269;-66
2022/05/28 03:18:58;;;;;;;2.40;1.70;;;17.80;99.90;;;;;;5035766;28;20251;-68
2022/05/28 03:21:24;;;;;;;1.93;1.70;;;17.70;99.90;;;;;;5036286;28;20186;-67
2022/05/28 03:23:50;;;;;;;1.60;1.50;;;17.70;99.90;;;;;;5035622;28;20190;-65
2022/05/28 03:26:23;;;;;;;1.77;1.67;;;17.70;99.90;;;;;;5035578;28;20181;-67
2022/05/28 03:28:50;;;;;;;1.90;1.63;;;17.70;99.90;;;;;;5053582;28;20418;-65
2022/05/28 03:31:17;;;;;;;7.03;1.90;;;17.60;99.90;;;;;;5035978;28;20568;-68
2022/05/28 03:33:42;;;;;;;1.90;1.80;;;17.70;99.90;;;;;;5035538;28;20418;-66
2022/05/28 03:36:09;;;;;;;2.80;2.40;;;17.60;99.90;;;;;;5039634;28;20434;-67
2022/05/28 03:38:35;;;;;;;4.50;2.70;;;17.60;99.90;;;;;;5039611;28;20173;-66
2022/05/28 03:41:01;;;;;;;3.00;2.50;;;17.60;99.90;;;;;;5039505;28;20454;-68
2022/05/28 03:43:28;;;;;;;4.23;3.00;;;17.50;99.90;;;;;;5039533;28;20411;-69
2022/05/28 03:45:54;;;;;;;3.53;3.20;;;17.50;99.90;;;;;;5039493;28;20541;-66
2022/05/28 03:48:20;;;;;;;3.70;3.37;;;17.50;99.90;;;;;;5039557;28;20502;-66
2022/05/28 03:50:46;;;;;;;3.53;3.20;;;17.50;99.90;;;;;;5039093;28;20925;-66
2022/05/28 03:53:12;;;;;;;7.50;3.60;;;17.50;99.90;;;;;;5057347;28;20422;-68
2022/05/28 03:55:39;;;;;;;6.23;4.47;;;17.50;99.90;;;;;;5039673;28;20468;-66
2022/05/28 03:58:06;;;;;;;7.90;4.43;;;17.50;99.90;;;;;;5039423;28;20430;-69
2022/05/28 04:00:32;;;;;;;7.40;4.13;;;17.50;99.90;;;;;;5039418;28;20431;-69
2022/05/28 04:02:58;;;;;;;3.40;3.10;;;17.50;99.90;;;;;;5039328;28;20501;-68
2022/05/28 04:05:24;;;;;;;4.80;3.43;;;17.40;99.90;;;;;;5039286;28;21026;-66
2022/05/28 04:07:51;;;;;;;2.77;2.37;;;17.40;99.90;;;;;;5039704;28;20499;-68
2022/05/28 04:10:17;;;;;;;3.00;2.30;;;17.40;99.90;;;;;;5039100;28;20476;-68
2022/05/28 04:12:43;;;;;;;3.30;2.10;;;17.40;99.90;;;;;;5039502;28;20923;-66
2022/05/28 04:15:10;;;;;;;2.17;1.97;;;17.40;99.90;;;;;;5038965;28;20452;-68
2022/05/28 04:17:37;;;;;;;1.83;1.73;;;17.40;99.90;;;;;;5038952;28;20531;-68
2022/05/28 04:20:04;;;;;;;2.73;2.50;;;17.40;99.90;;;;;;5038948;28;20434;-68
2022/05/28 04:22:30;;;;;;;3.00;2.20;;;17.40;99.90;;;;;;5038757;28;20426;-66
2022/05/28 04:24:56;;;;;;;1.70;1.60;;;17.30;99.90;;;;;;5038570;28;20970;-68
2022/05/28 04:27:22;;;;;;;2.00;1.80;;;17.40;99.90;;;;;;5038577;28;20207;-66
2022/05/28 04:29:48;;;;;;;2.60;2.40;;;17.40;99.90;;;;;;5038469;28;20193;-65
2022/05/28 04:32:13;;;;;;;1.70;1.60;;;17.40;99.90;;;;;;5038486;28;20415;-65
2022/05/28 04:34:39;;;;;;;3.83;2.33;;;17.40;99.90;;;;;;5038429;28;20239;-65
2022/05/28 04:37:05;;;;;;;2.40;2.20;;;17.40;99.90;;;;;;5038665;28;20438;-67
2022/05/28 04:39:31;;;;;;;2.50;2.30;;;17.40;99.90;;;;;;5056348;28;20212;-67
2022/05/28 04:41:57;;;;;;;3.10;2.03;;;17.40;99.90;;;;;;5038693;28;20438;-67
2022/05/28 04:44:22;;;;;;;2.17;1.90;;;17.40;99.90;;;;;;5038475;28;20283;-67
2022/05/28 04:46:48;;;;;;;2.03;1.83;;;17.40;99.90;;;;;;5037364;28;20548;-64
2022/05/28 04:49:14;;;;;;;2.17;1.77;;;17.40;99.90;;;;;;5038297;28;20216;-65
2022/05/28 04:51:40;;;;;;;1.77;1.53;;;17.40;99.90;;;;;;5038049;28;20828;-67
2022/05/28 04:54:06;;;;;;;3.73;1.73;;;17.40;99.90;;;;;;5038105;28;20572;-67
2022/05/28 04:56:32;;;;;;;1.30;1.20;;;17.40;99.90;;;;;;5038412;28;20426;-67
2022/05/28 04:58:58;;;;;;;1.10;1.00;;;17.40;99.90;;;;;;5038424;28;20612;-67
2022/05/28 05:01:24;;;;;;;1.03;0.93;;;17.40;99.90;;;;;;5037898;28;20488;-66
2022/05/28 05:03:50;;;;;;;1.90;1.43;;;17.40;99.90;;;;;;5044940;28;20449;-66
2022/05/28 05:06:16;;;;;;;1.77;1.67;;;17.50;99.90;;;;;;5056084;28;20798;-65
2022/05/28 05:08:42;;;;;;;2.00;1.73;;;17.50;99.90;;;;;;5057525;28;20188;-66
2022/05/28 05:11:10;;;;;;;1.90;1.67;;;17.60;99.90;;;;;;5057203;28;20307;-65
2022/05/28 05:13:39;;;;;;;1.47;1.33;;;17.60;99.90;;;;;;5037631;28;20516;-67
2022/05/28 05:16:16;;;;;;;4.37;1.60;;;17.70;99.90;;;;;;5054784;28;21193;-65
2022/05/28 05:18:46;;;;;;;1.63;1.53;;;17.70;99.90;;;;;;5075134;28;20417;-67
2022/05/28 05:21:12;;;;;;;1.37;1.03;;;17.80;99.90;;;;;;5049352;28;20450;-65
2022/05/28 05:23:44;;;;;;;1.37;1.27;;;17.80;99.90;;;;;;5035480;28;20419;-65
2022/05/28 05:26:11;;;;;;;5.60;1.20;;;17.90;99.90;;;;;;5034556;28;20419;-68
2022/05/28 05:28:37;;;;;;;6.33;1.53;;;17.90;99.90;;;;;;5034430;28;20510;-66
2022/05/28 05:31:03;;;;;;;1.70;1.60;;;18.00;99.90;;;;;;5069405;28;20511;-67
2022/05/28 05:33:30;;;;;;;1.40;1.30;;;18.00;99.90;;;;;;5051956;28;20540;-69
2022/05/28 05:35:56;;;;;;;1.47;1.33;;;18.10;99.90;;;;;;5090772;28;20522;-68
2022/05/28 05:38:22;;;;;;;1.40;1.30;;;18.10;99.90;;;;;;5074470;28;20469;-68
2022/05/28 05:40:51;;;;;;;1.70;1.60;;;18.20;99.90;;;;;;5066711;28;20200;-67
2022/05/28 05:43:27;;;;;;;1.67;1.57;;;18.30;99.90;;;;;;5037137;28;20178;-67
2022/05/28 05:46:00;;;;;;;2.30;1.47;;;18.30;99.90;;;;;;5037020;28;20475;-67
2022/05/28 05:48:31;;;;;;;1.50;1.30;;;18.40;99.90;;;;;;5037004;28;20427;-68
2022/05/28 05:51:23;;;;;;;1.30;1.20;;;18.40;99.90;;;;;;5039915;28;20500;-67
2022/05/28 05:53:55;;;;;;;1.40;1.10;;;18.50;99.90;;;;;;5092521;28;20509;-67
2022/05/28 05:57:00;;;;;;;2.00;1.27;;;18.60;99.90;;;;;;5054359;28;20789;-67
2022/05/28 05:59:30;;;;;;;2.17;1.20;;;18.60;99.90;;;;;;5052279;28;20443;-67
2022/05/28 06:01:55;;;;;;;1.10;1.00;;;18.60;99.90;;;;;;5076572;28;20433;-67
2022/05/28 06:04:39;;;;;;;1.13;1.03;;;18.70;99.90;;;;;;5063187;28;20450;-68
2022/05/28 06:08:01;;;;;;;1.87;1.67;;;18.70;99.90;;;;;;5052087;28;20404;-66
2022/05/28 06:10:51;;;;;;;2.13;1.70;;;18.70;99.90;;;;;;5921666;22;23853;-66
2022/05/28 06:13:24;;;;;;;1.90;1.43;;;18.70;99.90;;;;;;5133384;27;20422;-67
2022/05/28 06:15:51;;;;;;;2.77;1.20;;;18.70;99.90;;;;;;5134796;27;20440;-67
2022/05/28 06:18:17;;;;;;;1.53;1.43;;;18.70;99.90;;;;;;5107089;27;20444;-69
2022/05/28 06:20:43;;;;;;;1.47;1.37;;;18.80;99.90;;;;;;5135295;27;20440;-67
2022/05/28 06:23:09;;;;;;;2.53;1.13;;;18.80;99.90;;;;;;5111793;28;20172;-67
2022/05/28 06:25:38;;;;;;;2.00;1.50;;;18.80;99.90;;;;;;5106936;27;20259;-67
2022/05/28 06:28:17;;;;;;;2.10;1.90;;;18.80;99.90;;;;;;5110702;27;20294;-67
2022/05/28 06:31:06;;;;;;;1.10;1.00;;;18.80;99.90;;;;;;5123437;27;20474;-67
2022/05/28 06:33:39;;;;;;;1.70;1.40;;;18.80;99.90;;;;;;5109340;27;20428;-68
2022/05/28 06:36:08;;;;;;;1.30;1.00;;;18.80;99.90;;;;;;5114751;27;20787;-67
2022/05/28 06:38:35;;;;;;;1.77;1.50;;;18.80;99.90;;;;;;5133781;27;20745;-68
2022/05/28 06:41:07;;;;;;;2.40;1.70;;;18.80;99.90;;;;;;5115668;27;20987;-66
2022/05/28 06:47:26;;;;;;;2.50;1.67;;;18.80;99.90;;;;;;5127321;27;20517;-68
2022/05/28 06:57:01;;;;;;;1.80;1.63;;;18.80;99.90;;;;;;5704365;22;20483;-66
2022/05/28 06:59:50;;;;;;;2.33;1.67;;;18.80;99.90;;;;;;5061469;28;20972;-68
2022/05/28 07:02:43;;;;;;;1.60;1.50;;;18.80;99.90;;;;;;5074776;28;20794;-65
2022/05/28 07:05:44;;;;;;;2.23;1.53;;;18.80;99.90;;;;;;5047948;28;20460;-66
2022/05/28 07:08:39;;;;;;;1.93;1.30;;;18.80;99.90;;;;;;5091355;28;20439;-67
2022/05/28 07:11:50;;;;;;;1.57;1.47;;;18.80;99.90;;;;;;5091352;28;20534;-66
2022/05/28 07:14:34;;;;;;;3.50;1.33;;;18.80;99.90;;;;;;5090881;28;20463;-68
2022/05/28 07:17:05;;;;;;;1.50;1.40;;;18.80;99.90;;;;;;5090881;28;20440;-71
2022/05/28 07:19:34;;;;;;;1.90;1.50;;;18.80;99.90;;;;;;5091729;28;20436;-67
2022/05/28 07:22:25;;;;;;;2.70;1.40;;;18.80;99.90;;;;;;5107288;28;20422;-69
2022/05/28 07:24:58;;;;;;;1.50;1.40;;;18.90;99.90;;;;;;5081772;28;20444;-71
2022/05/28 07:27:31;;;;;;;2.73;2.07;;;18.90;99.90;;;;;;5110785;28;20951;-69
2022/05/28 07:29:58;;;;;;;6.83;2.20;;;18.90;99.90;;;;;;5084607;28;20445;-71
2022/05/28 07:32:29;;;;;;;2.27;1.37;;;18.90;99.90;;;;;;5079827;28;20433;-71
2022/05/28 07:34:59;;;;;;;1.37;1.27;;;18.90;99.90;;;;;;5082986;28;20946;-68
2022/05/28 07:37:32;;;;;;;2.00;1.50;;;18.90;99.90;;;;;;5061077;28;20461;-65
2022/05/28 07:40:03;;;;;;;2.50;1.57;;;18.80;99.90;;;;;;5060248;28;20493;-67
2022/05/28 07:42:28;;;;;;;1.67;1.57;;;18.80;99.90;;;;;;5070927;28;20417;-68
2022/05/28 07:45:22;;;;;;;1.67;1.50;;;18.80;99.90;;;;;;5089159;28;20413;-65
2022/05/28 07:48:16;;;;;;;2.57;1.47;;;18.80;99.90;;;;;;5069722;28;20192;-67
2022/05/28 07:51:06;;;;;;;2.13;1.40;;;18.80;99.90;;;;;;5050707;28;20489;-68
2022/05/28 07:54:03;;;;;;;2.07;1.40;;;18.80;99.90;;;;;;5051356;28;20422;-65
2022/05/28 07:56:55;;;;;;;1.40;1.30;;;18.80;99.90;;;;;;5056808;28;21011;-66
2022/05/28 07:59:38;;;;;;;1.57;1.43;;;18.80;99.90;;;;;;5063035;28;20451;-66
2022/05/28 08:02:33;;;;;;;2.20;2.00;;;18.90;99.90;;;;;;5067161;28;20875;-67
2022/05/28 08:05:26;;;;;;;5.50;4.30;;;18.90;99.90;;;;;;5080695;28;20730;-66
2022/05/28 08:08:03;;;;;;;1.50;1.40;;;18.90;99.90;;;;;;5067375;28;20473;-72
2022/05/28 08:11:00;;;;;;;114.93;58.07;;;18.90;99.90;;;;;;5081219;28;20579;-67
2022/05/28 08:16:46;;;;;;;2.87;1.47;;;19.00;99.90;;;;;;5264486;22;20504;-90
2022/05/28 08:19:12;;;;;;;2.53;1.80;;;19.00;99.90;;;;;;5091269;28;20420;-90
2022/05/28 08:24:22;;;;;;;2.43;1.70;;;19.00;99.90;;;;;;5127559;27;20232;-92
2022/05/28 08:26:48;;;;;;;2.90;1.63;;;19.00;99.90;;;;;;5136002;27;20451;-94
2022/05/28 08:29:13;;;;;;;1.67;1.57;;;19.00;99.90;;;;;;5117825;27;20811;-92
2022/05/28 08:31:39;;;;;;;2.17;1.50;;;19.00;99.90;;;;;;5085584;28;20223;-93
2022/05/28 08:34:05;;;;;;;1.87;1.67;;;19.00;99.90;;;;;;5032781;28;20207;-91
2022/05/28 08:36:31;;;;;;;1.43;1.23;;;19.00;99.90;;;;;;5062030;27;20206;-93
2022/05/28 08:38:56;;;;;;;2.73;1.50;;;18.90;99.90;;;;;;5098541;27;20184;-93
2022/05/28 08:41:32;;;;;;;1.93;1.73;;;18.90;99.90;;;;;;5078839;27;20448;-93
2022/05/28 08:44:07;;;;;;;3.77;1.80;;;18.90;99.90;;;;;;5131149;27;20175;-93
2022/05/28 08:46:38;;;;;;;2.10;1.73;;;18.90;99.90;;;;;;5134004;27;20547;-91
2022/05/28 08:49:08;;;;;;;2.97;1.43;;;18.90;99.90;;;;;;5048101;27;20473;-94
2022/05/28 08:51:48;;;;;;;1.70;1.37;;;18.80;99.90;;;;;;5047742;27;20473;-92
2022/05/28 08:54:19;;;;;;;2.37;1.37;;;18.80;99.90;;;;;;5046194;27;20423;-94
2022/05/28 08:56:46;;;;;;;1.80;1.70;;;18.80;99.90;;;;;;5134622;27;20440;-93
2022/05/28 08:59:39;;;;;;;2.00;1.83;;;18.80;99.90;;;;;;5043226;27;20523;-93
2022/05/28 09:02:22;;;;;;;2.53;1.70;;;18.70;99.90;;;;;;5040308;27;20784;-93
2022/05/28 09:04:50;;;;;;;1.90;1.70;;;18.60;99.90;;;;;;5040875;27;20420;-93
2022/05/28 09:07:17;;;;;;;1.73;1.63;;;18.60;99.90;;;;;;5043026;27;20435;-93
2022/05/28 09:09:44;;;;;;;2.87;2.30;;;18.50;99.90;;;;;;5044683;27;20837;-92
2022/05/28 09:12:41;;;;;;;1.97;1.70;;;18.50;99.90;;;;;;5043152;27;21079;-93
2022/05/28 09:15:08;;;;;;;1.93;1.50;;;18.50;99.90;;;;;;5045840;27;20423;-94
2022/05/28 09:17:38;;;;;;;3.30;2.20;;;18.50;99.90;;;;;;5048710;27;20986;-93
2022/05/28 09:20:17;;;;;;;2.47;1.97;;;18.50;99.90;;;;;;5048660;27;20407;-93
2022/05/28 09:22:44;;;;;;;1.83;1.70;;;18.50;99.90;;;;;;5051557;27;20811;-93
2022/05/28 09:25:10;;;;;;;5.67;1.87;;;18.50;99.90;;;;;;5062357;27;20407;-92
2022/05/28 09:27:45;;;;;;;1.63;1.53;;;18.50;99.90;;;;;;5140809;27;20455;-93
2022/05/28 09:30:11;;;;;;;2.50;1.80;;;18.50;99.90;;;;;;5053508;27;20415;-95
2022/05/28 09:33:01;;;;;;;2.13;1.93;;;18.50;99.90;;;;;;5050474;27;20458;-93
2022/05/28 09:35:48;;;;;;;2.53;1.90;;;18.50;99.90;;;;;;5140267;27;20597;-93
2022/05/28 09:38:25;;;;;;;5.40;2.00;;;18.50;99.90;;;;;;5053125;27;20798;-93
2022/05/28 09:40:54;;;;;;;2.40;2.10;;;18.50;99.90;;;;;;5061553;27;20744;-93
2022/05/28 09:43:45;;;;;;;6.40;4.30;;;18.40;99.90;;;;;;5144192;27;20474;-92
2022/05/28 09:46:27;;;;;;;10.50;5.33;;;18.40;99.90;;;;;;5139269;27;20403;-92
2022/05/28 09:49:00;;;;;;;2.17;1.97;;;18.40;99.90;;;;;;5052554;27;20449;-91
2022/05/28 09:51:28;;;;;;;2.63;1.70;;;18.40;99.90;;;;;;5065802;27;20459;-91
2022/05/28 09:54:18;;;;;;;2.30;2.03;;;18.40;99.90;;;;;;5065571;27;20509;-91
2022/05/28 09:57:10;;;;;;;2.90;1.97;;;18.40;99.90;;;;;;5151239;27;20444;-91
2022/05/28 09:59:46;;;;;;;2.87;2.23;;;18.40;99.90;;;;;;5050002;27;20486;-91
2022/05/28 10:02:19;;;;;;;1.80;1.70;;;18.40;99.90;;;;;;5138365;27;20511;-90
2022/05/28 10:04:46;;;;;;;2.20;1.70;;;18.40;99.90;;;;;;5051813;27;20423;-92
2022/05/28 10:07:12;;;;;;;1.93;1.73;;;18.40;99.90;;;;;;5050674;27;20499;-92
2022/05/28 10:09:49;;;;;;;2.43;1.93;;;18.50;99.90;;;;;;5051025;27;20418;-89
2022/05/28 10:12:23;;;;;;;3.67;2.47;;;18.50;99.90;;;;;;5049938;27;20482;-89
2022/05/28 10:15:28;;;;;;;1.90;1.70;;;18.50;99.90;;;;;;5139203;27;20437;-89
2022/05/28 10:18:00;;;;;;;2.53;2.33;;;18.50;99.90;;;;;;5038388;28;20597;-91
2022/05/28 10:20:27;;;;;;;3.23;2.33;;;18.50;99.90;;;;;;5053203;27;20439;-93
2022/05/28 10:22:56;;;;;;;2.77;1.90;;;18.50;99.90;;;;;;5137964;27;20431;-90
2022/05/28 10:25:21;;;;;;;2.83;2.10;;;18.50;99.90;;;;;;5138477;27;20849;-90
2022/05/28 10:27:53;;;;;;;2.53;2.07;;;18.50;99.90;;;;;;5050474;27;20458;-90
2022/05/28 10:30:45;;;;;;;2.10;1.90;;;18.50;99.90;;;;;;5050961;27;20209;-94
2022/05/28 10:33:18;;;;;;;2.30;1.80;;;18.50;99.90;;;;;;5049838;27;20513;-92
2022/05/28 10:35:45;;;;;;;2.30;1.80;;;18.50;99.90;;;;;;5049757;27;20464;-90
2022/05/28 10:38:11;;;;;;;1.90;1.80;;;18.50;99.90;;;;;;5050300;27;20542;-92
2022/05/28 10:40:49;;;;;;;2.17;1.77;;;18.50;99.90;;;;;;5053044;27;20868;-88
2022/05/28 10:43:33;;;;;;;4.57;3.77;;;18.50;99.90;;;;;;5138522;27;20195;-91
2022/05/28 10:46:25;;;;;;;2.27;2.10;;;18.50;99.90;;;;;;5051899;27;20431;-92
2022/05/28 10:49:15;;;;;;;2.20;2.00;;;18.50;99.90;;;;;;5055056;27;20467;-93
2022/05/28 10:52:06;;;;;;;2.60;2.13;;;18.50;99.90;;;;;;5058760;27;20550;-90
2022/05/28 10:54:40;;;;;;;6.80;2.20;;;18.50;99.90;;;;;;5057130;27;20434;-92
2022/05/28 10:57:33;;;;;;;2.17;1.97;;;18.50;99.90;;;;;;5068110;27;20438;-94
2022/05/28 11:00:14;;;;;;;2.73;2.53;;;18.40;99.90;;;;;;5058387;27;20423;-93
2022/05/28 11:03:22;;;;;;;5.73;2.50;;;18.40;99.90;;;;;;5049058;27;20787;-92
2022/05/28 11:06:06;;;;;;;2.27;2.07;;;18.40;99.90;;;;;;5050383;27;20449;-91
2022/05/28 11:08:41;;;;;;;3.63;2.70;;;18.40;99.90;;;;;;5137851;27;20943;-94
2022/05/28 11:11:21;;;;;;;3.50;2.80;;;18.40;99.90;;;;;;5137276;27;20467;-94
2022/05/28 11:14:01;;;;;;;2.43;2.00;;;18.40;99.90;;;;;;5048215;27;20446;-91
2022/05/28 11:16:52;;;;;;;3.10;2.70;;;18.40;99.90;;;;;;5135465;27;20811;-94
2022/05/28 11:19:48;;;;;;;2.63;2.37;;;18.40;99.90;;;;;;5048133;27;20435;-94
2022/05/28 11:22:19;;;;;;;5.37;2.80;;;18.40;99.90;;;;;;5136831;27;20500;-92
2022/05/28 11:24:55;;;;;;;5.07;2.93;;;18.40;99.90;;;;;;5137284;28;20431;-92
2022/05/28 11:27:26;;;;;;;3.00;2.63;;;18.30;99.90;;;;;;5049658;28;20427;-92
2022/05/28 11:30:03;;;;;;;2.97;2.33;;;18.30;99.90;;;;;;5136456;28;20468;-92
2022/05/28 11:33:08;;;;;;;4.20;2.90;;;18.30;99.90;;;;;;5049731;28;20562;-92
2022/05/28 11:35:39;;;;;;;3.00;2.80;;;18.30;99.90;;;;;;5049026;28;20442;-89
2022/05/28 11:38:27;;;;;;;4.37;3.30;;;18.30;99.90;;;;;;5136212;28;20423;-92
2022/05/28 11:41:07;;;;;;;4.73;2.83;;;18.20;99.90;;;;;;5048453;28;20427;-88
2022/05/28 11:43:43;;;;;;;3.93;2.63;;;18.20;99.90;;;;;;5048785;28;20431;-89
2022/05/28 11:46:30;;;;;;;3.53;2.87;;;18.10;99.90;;;;;;5048493;28;20442;-93
2022/05/28 11:52:21;;;;;;;3.40;3.00;;;18.00;99.90;;;;;;5137389;28;20557;-89
2022/05/28 11:54:50;;;;;;;5.10;2.83;;;18.00;99.90;;;;;;5049860;27;20419;-91
2022/05/28 11:57:57;;;;;;;5.23;3.60;;;17.80;99.90;;;;;;5142174;27;20931;-92
2022/05/28 12:00:25;;;;;;;3.13;2.50;;;17.80;99.90;;;;;;5053841;27;20805;-92
2022/05/28 12:02:59;;;;;;;4.50;3.20;;;17.80;99.90;;;;;;5140755;27;20435;-92
2022/05/28 12:05:39;;;;;;;4.70;3.43;;;17.70;99.90;;;;;;5054681;27;20525;-89
2022/05/28 12:08:05;;;;;;;4.17;3.20;;;17.60;99.90;;;;;;5053705;27;20441;-93
2022/05/28 12:10:53;;;;;;;4.60;3.20;;;17.60;99.90;;;;;;5054753;27;21021;-91
2022/05/28 12:13:48;;;;;;;3.33;3.03;;;17.60;99.90;;;;;;5055790;27;20435;-92
2022/05/28 12:16:40;;;;;;;6.40;3.30;;;17.60;99.90;;;;;;5137393;27;20476;-92
2022/05/28 12:19:13;;;;;;;4.83;3.30;;;17.50;99.90;;;;;;5053065;27;20818;-89
2022/05/28 12:21:41;;;;;;;3.63;2.93;;;17.50;99.90;;;;;;5051909;27;20451;-89
2022/05/28 12:24:12;;;;;;;8.07;3.40;;;17.50;99.90;;;;;;5139427;27;20395;-92
2022/05/28 12:26:56;;;;;;;4.50;3.20;;;17.50;99.90;;;;;;5053755;27;20808;-93
2022/05/28 12:29:38;;;;;;;3.70;3.13;;;17.50;99.90;;;;;;5053410;27;20531;-89
2022/05/28 12:32:19;;;;;;;3.57;3.20;;;17.50;99.90;;;;;;5053545;27;20494;-94
2022/05/28 12:34:53;;;;;;;4.03;3.37;;;17.40;99.90;;;;;;5140674;27;20396;-89
2022/05/28 12:37:33;;;;;;;4.30;3.13;;;17.30;99.90;;;;;;5051484;27;20807;-90
2022/05/28 12:40:23;;;;;;;4.13;3.03;;;17.30;99.90;;;;;;5053336;27;20790;-92
2022/05/28 12:42:49;;;;;;;4.50;3.00;;;17.30;99.90;;;;;;5052719;27;20893;-87
2022/05/28 12:45:37;;;;;;;3.90;2.90;;;17.20;99.90;;;;;;5050827;27;20453;-87
2022/05/28 12:48:13;;;;;;;6.70;4.80;;;17.20;99.90;;;;;;5036704;27;20546;-87
2022/05/28 12:51:00;;;;;;;48.93;26.00;;;17.20;99.90;;;;;;5139275;27;20447;-91
2022/05/28 12:53:27;;;;;;;49.90;22.07;;;17.30;99.90;;;;;;5053888;27;20446;-93
2022/05/28 12:56:20;;;;;;;261.43;104.90;;;17.30;99.90;;;;;;5054562;27;20464;-87
2022/05/28 12:58:46;;;;;;;22.80;11.80;;;17.30;99.90;;;;;;5152737;27;20390;-92
2022/05/28 13:01:26;;;;;;;6.50;3.83;;;17.30;99.90;;;;;;5137985;27;20462;-89
2022/05/28 13:03:53;;;;;;;3.87;3.23;;;17.30;99.90;;;;;;5049759;27;20475;-88
2022/05/28 13:06:28;;;;;;;2.93;2.70;;;17.40;99.90;;;;;;5055579;27;20470;-89
2022/05/28 13:09:10;;;;;;;5.40;2.73;;;17.40;99.90;;;;;;5050197;27;20403;-92
2022/05/28 13:11:50;;;;;;;4.90;3.10;;;17.50;99.90;;;;;;5049991;27;20486;-88
2022/05/28 13:14:37;;;;;;;3.47;2.43;;;17.50;99.90;;;;;;5051264;27;20441;-91
2022/05/28 13:17:10;;;;;;;3.80;2.50;;;17.50;99.90;;;;;;5138319;27;20467;-89
2022/05/28 13:20:07;;;;;;;6.03;2.57;;;17.50;99.90;;;;;;5120606;27;20411;-89
2022/05/28 13:23:09;;;;;;;3.73;2.70;;;17.60;99.90;;;;;;5121033;27;20479;-87
2022/05/28 13:25:44;;;;;;;2.53;2.33;;;17.60;99.90;;;;;;5139194;27;20396;-86
2022/05/28 13:28:19;;;;;;;3.40;2.77;;;17.60;99.90;;;;;;5139014;27;20423;-87
2022/05/28 13:30:50;;;;;;;3.00;2.63;;;17.60;99.90;;;;;;5119073;27;20462;-90
2022/05/28 13:33:18;;;;;;;6.90;4.03;;;17.70;99.90;;;;;;5138186;27;20845;-86
2022/05/28 13:35:52;;;;;;;3.00;2.10;;;17.70;99.90;;;;;;5137825;27;20552;-89
2022/05/28 13:38:22;;;;;;;4.13;3.70;;;17.70;99.90;;;;;;5123791;27;20434;-90
2022/05/28 13:40:49;;;;;;;3.13;2.13;;;17.60;99.90;;;;;;5116813;27;20404;-87